sensor_id;sensor_type;location;lat;lon;timestamp;P1;durP1;ratioP1;P2;durP2;ratioP2
2039;SDS011;1025;42.686;23.350;2023-08-06T00:02:19;7.87;;;7.07;;
2039;SDS011;1025;42.686;23.350;2023-08-06T00:04:46;6.50;;;5.90;;
2039;SDS011;1025;42.686;23.350;2023-08-06T00:07:12;6.50;;;5.00;;
2039;SDS011;1025;42.686;23.350;2023-08-06T00:09:40;5.30;;;4.77;;
2039;SDS011;1025;42.686;23.350;2023-08-06T00:12:07;6.93;;;5.57;;
2039;SDS011;1025;42.686;23.350;2023-08-06T00:14:33;5.47;;;4.40;;
2039;SDS011;1025;42.686;23.350;2023-08-06T00:17:00;5.83;;;5.27;;
2039;SDS011;1025;42.686;23.350;2023-08-06T00:19:26;5.07;;;4.60;;
2039;SDS011;1025;42.686;23.350;2023-08-06T00:21:53;4.00;;;3.70;;
2039;SDS011;1025;42.686;23.350;2023-08-06T00:24:19;5.13;;;4.50;;
2039;SDS011;1025;42.686;23.350;2023-08-06T00:26:47;4.67;;;4.27;;
2039;SDS011;1025;42.686;23.350;2023-08-06T00:29:14;5.40;;;4.53;;
2039;SDS011;1025;42.686;23.350;2023-08-06T00:31:40;4.30;;;4.00;;
2039;SDS011;1025;42.686;23.350;2023-08-06T00:34:07;4.10;;;3.80;;
2039;SDS011;1025;42.686;23.350;2023-08-06T00:36:33;6.00;;;4.40;;
2039;SDS011;1025;42.686;23.350;2023-08-06T00:38:59;5.73;;;4.80;;
2039;SDS011;1025;42.686;23.350;2023-08-06T00:41:26;5.03;;;4.53;;
2039;SDS011;1025;42.686;23.350;2023-08-06T00:43:54;6.30;;;5.80;;
2039;SDS011;1025;42.686;23.350;2023-08-06T00:46:20;7.27;;;6.67;;
2039;SDS011;1025;42.686;23.350;2023-08-06T00:48:47;6.60;;;6.10;;
2039;SDS011;1025;42.686;23.350;2023-08-06T00:51:14;6.63;;;6.10;;
2039;SDS011;1025;42.686;23.350;2023-08-06T00:53:41;7.90;;;7.10;;
2039;SDS011;1025;42.686;23.350;2023-08-06T00:56:08;7.13;;;6.53;;
2039;SDS011;1025;42.686;23.350;2023-08-06T00:58:35;6.90;;;6.20;;
2039;SDS011;1025;42.686;23.350;2023-08-06T01:01:03;7.70;;;7.10;;
2039;SDS011;1025;42.686;23.350;2023-08-06T01:03:30;8.80;;;6.43;;
2039;SDS011;1025;42.686;23.350;2023-08-06T01:05:56;8.07;;;7.40;;
2039;SDS011;1025;42.686;23.350;2023-08-06T01:08:28;9.70;;;8.57;;
2039;SDS011;1025;42.686;23.350;2023-08-06T01:11:05;7.80;;;7.10;;
2039;SDS011;1025;42.686;23.350;2023-08-06T01:13:37;9.43;;;8.50;;
2039;SDS011;1025;42.686;23.350;2023-08-06T01:16:07;8.53;;;7.83;;
2039;SDS011;1025;42.686;23.350;2023-08-06T01:18:34;8.30;;;7.50;;
2039;SDS011;1025;42.686;23.350;2023-08-06T01:21:03;8.20;;;7.43;;
2039;SDS011;1025;42.686;23.350;2023-08-06T01:23:30;8.50;;;7.50;;
2039;SDS011;1025;42.686;23.350;2023-08-06T01:26:01;8.57;;;7.77;;
2039;SDS011;1025;42.686;23.350;2023-08-06T01:28:32;13.17;;;8.23;;
2039;SDS011;1025;42.686;23.350;2023-08-06T01:31:01;8.87;;;8.10;;
2039;SDS011;1025;42.686;23.350;2023-08-06T01:33:29;7.10;;;6.60;;
2039;SDS011;1025;42.686;23.350;2023-08-06T01:35:57;7.87;;;7.13;;
2039;SDS011;1025;42.686;23.350;2023-08-06T01:38:26;6.97;;;6.37;;
2039;SDS011;1025;42.686;23.350;2023-08-06T01:40:53;7.20;;;5.87;;
2039;SDS011;1025;42.686;23.350;2023-08-06T01:43:20;5.67;;;5.17;;
2039;SDS011;1025;42.686;23.350;2023-08-06T01:45:46;9.67;;;4.97;;
2039;SDS011;1025;42.686;23.350;2023-08-06T01:48:13;4.37;;;4.07;;
2039;SDS011;1025;42.686;23.350;2023-08-06T01:50:39;4.90;;;4.50;;
2039;SDS011;1025;42.686;23.350;2023-08-06T01:53:06;4.33;;;4.03;;
2039;SDS011;1025;42.686;23.350;2023-08-06T01:55:34;5.07;;;4.67;;
2039;SDS011;1025;42.686;23.350;2023-08-06T01:58:00;5.50;;;5.10;;
2039;SDS011;1025;42.686;23.350;2023-08-06T02:00:27;5.60;;;5.20;;
2039;SDS011;1025;42.686;23.350;2023-08-06T02:02:54;5.70;;;5.10;;
2039;SDS011;1025;42.686;23.350;2023-08-06T02:05:20;5.23;;;4.77;;
2039;SDS011;1025;42.686;23.350;2023-08-06T02:07:47;5.50;;;4.60;;
2039;SDS011;1025;42.686;23.350;2023-08-06T02:10:13;9.70;;;5.07;;
2039;SDS011;1025;42.686;23.350;2023-08-06T02:12:41;5.30;;;4.77;;
2039;SDS011;1025;42.686;23.350;2023-08-06T02:15:08;4.40;;;4.10;;
2039;SDS011;1025;42.686;23.350;2023-08-06T02:17:34;5.13;;;4.73;;
2039;SDS011;1025;42.686;23.350;2023-08-06T02:20:01;5.70;;;5.20;;
2039;SDS011;1025;42.686;23.350;2023-08-06T02:22:27;4.60;;;4.00;;
2039;SDS011;1025;42.686;23.350;2023-08-06T02:24:54;5.57;;;5.10;;
2039;SDS011;1025;42.686;23.350;2023-08-06T02:27:21;5.77;;;5.23;;
2039;SDS011;1025;42.686;23.350;2023-08-06T02:29:48;5.93;;;4.10;;
2039;SDS011;1025;42.686;23.350;2023-08-06T02:32:15;4.93;;;4.57;;
2039;SDS011;1025;42.686;23.350;2023-08-06T02:34:41;5.27;;;4.77;;
2039;SDS011;1025;42.686;23.350;2023-08-06T02:37:08;5.17;;;4.67;;
2039;SDS011;1025;42.686;23.350;2023-08-06T02:39:34;7.20;;;5.57;;
2039;SDS011;1025;42.686;23.350;2023-08-06T02:42:04;5.77;;;5.27;;
2039;SDS011;1025;42.686;23.350;2023-08-06T02:44:31;8.50;;;5.50;;
2039;SDS011;1025;42.686;23.350;2023-08-06T02:47:00;5.20;;;4.70;;
2039;SDS011;1025;42.686;23.350;2023-08-06T02:49:26;6.40;;;5.60;;
2039;SDS011;1025;42.686;23.350;2023-08-06T02:51:53;6.50;;;4.67;;
2039;SDS011;1025;42.686;23.350;2023-08-06T02:54:19;6.20;;;5.63;;
2039;SDS011;1025;42.686;23.350;2023-08-06T02:56:46;4.93;;;4.43;;
2039;SDS011;1025;42.686;23.350;2023-08-06T02:59:12;5.53;;;5.03;;
2039;SDS011;1025;42.686;23.350;2023-08-06T03:01:39;6.80;;;6.20;;
2039;SDS011;1025;42.686;23.350;2023-08-06T03:04:07;5.30;;;4.80;;
2039;SDS011;1025;42.686;23.350;2023-08-06T03:06:33;6.47;;;5.73;;
2039;SDS011;1025;42.686;23.350;2023-08-06T03:09:00;10.17;;;7.40;;
2039;SDS011;1025;42.686;23.350;2023-08-06T03:11:26;5.73;;;5.23;;
2039;SDS011;1025;42.686;23.350;2023-08-06T03:13:53;6.53;;;5.80;;
2039;SDS011;1025;42.686;23.350;2023-08-06T03:16:19;6.10;;;5.50;;
2039;SDS011;1025;42.686;23.350;2023-08-06T03:18:46;5.90;;;5.40;;
2039;SDS011;1025;42.686;23.350;2023-08-06T03:21:14;5.97;;;5.47;;
2039;SDS011;1025;42.686;23.350;2023-08-06T03:23:40;7.67;;;6.57;;
2039;SDS011;1025;42.686;23.350;2023-08-06T03:26:07;5.60;;;5.10;;
2039;SDS011;1025;42.686;23.350;2023-08-06T03:28:34;7.00;;;6.30;;
2039;SDS011;1025;42.686;23.350;2023-08-06T03:31:00;6.77;;;5.90;;
2039;SDS011;1025;42.686;23.350;2023-08-06T03:33:27;6.83;;;6.17;;
2039;SDS011;1025;42.686;23.350;2023-08-06T03:35:53;5.80;;;5.40;;
2039;SDS011;1025;42.686;23.350;2023-08-06T03:38:21;6.00;;;5.53;;
2039;SDS011;1025;42.686;23.350;2023-08-06T03:40:48;6.47;;;5.87;;
2039;SDS011;1025;42.686;23.350;2023-08-06T03:43:15;6.10;;;5.00;;
2039;SDS011;1025;42.686;23.350;2023-08-06T03:45:41;5.70;;;5.13;;
2039;SDS011;1025;42.686;23.350;2023-08-06T03:48:08;6.73;;;6.20;;
2039;SDS011;1025;42.686;23.350;2023-08-06T03:50:34;6.10;;;5.60;;
2039;SDS011;1025;42.686;23.350;2023-08-06T03:53:01;7.50;;;6.50;;
2039;SDS011;1025;42.686;23.350;2023-08-06T03:55:29;6.57;;;5.97;;
2039;SDS011;1025;42.686;23.350;2023-08-06T03:57:55;5.53;;;5.13;;
2039;SDS011;1025;42.686;23.350;2023-08-06T04:00:22;6.53;;;6.03;;
2039;SDS011;1025;42.686;23.350;2023-08-06T04:02:48;6.73;;;6.13;;
2039;SDS011;1025;42.686;23.350;2023-08-06T04:05:15;6.33;;;5.73;;
2039;SDS011;1025;42.686;23.350;2023-08-06T04:07:42;5.80;;;4.90;;
2039;SDS011;1025;42.686;23.350;2023-08-06T04:10:09;6.60;;;5.57;;
2039;SDS011;1025;42.686;23.350;2023-08-06T04:12:37;6.63;;;6.03;;
2039;SDS011;1025;42.686;23.350;2023-08-06T04:15:04;6.30;;;5.77;;
2039;SDS011;1025;42.686;23.350;2023-08-06T04:17:31;6.33;;;5.73;;
2039;SDS011;1025;42.686;23.350;2023-08-06T04:19:58;6.00;;;5.50;;
2039;SDS011;1025;42.686;23.350;2023-08-06T04:22:24;6.70;;;6.10;;
2039;SDS011;1025;42.686;23.350;2023-08-06T04:24:51;7.53;;;6.73;;
2039;SDS011;1025;42.686;23.350;2023-08-06T04:27:18;7.13;;;6.33;;
2039;SDS011;1025;42.686;23.350;2023-08-06T04:29:46;7.00;;;6.40;;
2039;SDS011;1025;42.686;23.350;2023-08-06T04:32:14;6.50;;;6.00;;
2039;SDS011;1025;42.686;23.350;2023-08-06T04:34:41;6.37;;;5.43;;
2039;SDS011;1025;42.686;23.350;2023-08-06T04:37:09;7.73;;;5.90;;
2039;SDS011;1025;42.686;23.350;2023-08-06T04:39:35;6.70;;;6.10;;
2039;SDS011;1025;42.686;23.350;2023-08-06T04:42:02;6.73;;;6.07;;
2039;SDS011;1025;42.686;23.350;2023-08-06T04:44:29;7.30;;;6.60;;
2039;SDS011;1025;42.686;23.350;2023-08-06T04:46:56;7.27;;;6.57;;
2039;SDS011;1025;42.686;23.350;2023-08-06T04:49:24;5.63;;;5.23;;
2039;SDS011;1025;42.686;23.350;2023-08-06T04:51:52;8.13;;;6.17;;
2039;SDS011;1025;42.686;23.350;2023-08-06T04:54:20;6.03;;;5.53;;
2039;SDS011;1025;42.686;23.350;2023-08-06T04:56:47;5.57;;;5.07;;
2039;SDS011;1025;42.686;23.350;2023-08-06T04:59:13;4.57;;;4.27;;
2039;SDS011;1025;42.686;23.350;2023-08-06T05:01:40;4.93;;;4.63;;
2039;SDS011;1025;42.686;23.350;2023-08-06T05:04:08;6.30;;;5.80;;
2039;SDS011;1025;42.686;23.350;2023-08-06T05:06:34;6.63;;;6.13;;
2039;SDS011;1025;42.686;23.350;2023-08-06T05:09:03;7.67;;;6.77;;
2039;SDS011;1025;42.686;23.350;2023-08-06T05:11:29;5.40;;;5.00;;
2039;SDS011;1025;42.686;23.350;2023-08-06T05:13:56;5.13;;;4.73;;
2039;SDS011;1025;42.686;23.350;2023-08-06T05:16:23;5.00;;;4.50;;
2039;SDS011;1025;42.686;23.350;2023-08-06T05:18:49;4.27;;;3.97;;
2039;SDS011;1025;42.686;23.350;2023-08-06T05:21:17;7.00;;;3.47;;
2039;SDS011;1025;42.686;23.350;2023-08-06T05:23:44;3.30;;;3.10;;
2039;SDS011;1025;42.686;23.350;2023-08-06T05:26:10;4.23;;;3.93;;
2039;SDS011;1025;42.686;23.350;2023-08-06T05:28:37;23.90;;;7.43;;
2039;SDS011;1025;42.686;23.350;2023-08-06T05:31:03;12.40;;;5.80;;
2039;SDS011;1025;42.686;23.350;2023-08-06T05:33:30;5.17;;;3.90;;
2039;SDS011;1025;42.686;23.350;2023-08-06T05:35:57;8.67;;;5.43;;
2039;SDS011;1025;42.686;23.350;2023-08-06T05:38:25;7.80;;;6.20;;
2039;SDS011;1025;42.686;23.350;2023-08-06T05:40:51;7.67;;;6.20;;
2039;SDS011;1025;42.686;23.350;2023-08-06T05:43:18;11.53;;;6.50;;
2039;SDS011;1025;42.686;23.350;2023-08-06T05:45:44;19.30;;;7.33;;
2039;SDS011;1025;42.686;23.350;2023-08-06T05:48:11;11.70;;;5.90;;
2039;SDS011;1025;42.686;23.350;2023-08-06T05:50:38;18.27;;;8.00;;
2039;SDS011;1025;42.686;23.350;2023-08-06T05:53:04;22.80;;;6.13;;
2039;SDS011;1025;42.686;23.350;2023-08-06T05:55:32;5.50;;;5.00;;
2039;SDS011;1025;42.686;23.350;2023-08-06T05:57:59;34.27;;;7.70;;
2039;SDS011;1025;42.686;23.350;2023-08-06T06:00:25;22.20;;;8.67;;
2039;SDS011;1025;42.686;23.350;2023-08-06T06:02:52;17.53;;;6.23;;
2039;SDS011;1025;42.686;23.350;2023-08-06T06:05:18;16.10;;;5.97;;
2039;SDS011;1025;42.686;23.350;2023-08-06T06:07:45;12.13;;;4.33;;
2039;SDS011;1025;42.686;23.350;2023-08-06T06:10:11;5.27;;;3.20;;
2039;SDS011;1025;42.686;23.350;2023-08-06T06:12:40;7.93;;;3.57;;
2039;SDS011;1025;42.686;23.350;2023-08-06T06:15:06;9.90;;;4.03;;
2039;SDS011;1025;42.686;23.350;2023-08-06T06:17:33;5.00;;;2.60;;
2039;SDS011;1025;42.686;23.350;2023-08-06T06:19:59;24.23;;;5.10;;
2039;SDS011;1025;42.686;23.350;2023-08-06T06:22:26;15.80;;;4.60;;
2039;SDS011;1025;42.686;23.350;2023-08-06T06:24:53;9.50;;;3.40;;
2039;SDS011;1025;42.686;23.350;2023-08-06T06:27:20;16.13;;;4.33;;
2039;SDS011;1025;42.686;23.350;2023-08-06T06:29:48;2.80;;;2.53;;
2039;SDS011;1025;42.686;23.350;2023-08-06T06:32:14;6.47;;;2.40;;
2039;SDS011;1025;42.686;23.350;2023-08-06T06:34:41;5.40;;;2.90;;
2039;SDS011;1025;42.686;23.350;2023-08-06T06:37:07;13.10;;;3.63;;
2039;SDS011;1025;42.686;23.350;2023-08-06T06:39:34;5.40;;;3.07;;
2039;SDS011;1025;42.686;23.350;2023-08-06T06:42:00;17.83;;;3.87;;
2039;SDS011;1025;42.686;23.350;2023-08-06T06:44:27;3.43;;;2.47;;
2039;SDS011;1025;42.686;23.350;2023-08-06T06:46:55;2.80;;;2.27;;
2039;SDS011;1025;42.686;23.350;2023-08-06T06:49:21;14.13;;;3.47;;
2039;SDS011;1025;42.686;23.350;2023-08-06T06:51:48;2.67;;;2.47;;
2039;SDS011;1025;42.686;23.350;2023-08-06T06:54:14;4.63;;;2.20;;
2039;SDS011;1025;42.686;23.350;2023-08-06T06:56:41;3.40;;;2.50;;
2039;SDS011;1025;42.686;23.350;2023-08-06T06:59:08;5.13;;;4.00;;
2039;SDS011;1025;42.686;23.350;2023-08-06T07:01:34;2.30;;;2.10;;
2039;SDS011;1025;42.686;23.350;2023-08-06T07:04:02;2.93;;;2.73;;
2039;SDS011;1025;42.686;23.350;2023-08-06T07:06:30;4.33;;;2.90;;
2039;SDS011;1025;42.686;23.350;2023-08-06T07:08:56;5.33;;;2.47;;
2039;SDS011;1025;42.686;23.350;2023-08-06T07:11:23;4.73;;;2.83;;
2039;SDS011;1025;42.686;23.350;2023-08-06T07:13:49;6.43;;;3.10;;
2039;SDS011;1025;42.686;23.350;2023-08-06T07:16:16;7.57;;;2.90;;
2039;SDS011;1025;42.686;23.350;2023-08-06T07:18:42;6.00;;;2.80;;
2039;SDS011;1025;42.686;23.350;2023-08-06T07:21:10;6.90;;;3.27;;
2039;SDS011;1025;42.686;23.350;2023-08-06T07:23:37;8.13;;;3.20;;
2039;SDS011;1025;42.686;23.350;2023-08-06T07:26:03;2.97;;;2.13;;
2039;SDS011;1025;42.686;23.350;2023-08-06T07:28:30;10.20;;;3.60;;
2039;SDS011;1025;42.686;23.350;2023-08-06T07:30:56;6.97;;;2.80;;
2039;SDS011;1025;42.686;23.350;2023-08-06T07:33:23;3.80;;;3.50;;
2039;SDS011;1025;42.686;23.350;2023-08-06T07:35:49;3.63;;;2.67;;
2039;SDS011;1025;42.686;23.350;2023-08-06T07:38:17;4.93;;;2.80;;
2039;SDS011;1025;42.686;23.350;2023-08-06T07:40:44;3.87;;;2.77;;
2039;SDS011;1025;42.686;23.350;2023-08-06T07:43:11;3.00;;;2.63;;
2039;SDS011;1025;42.686;23.350;2023-08-06T07:45:37;2.57;;;2.37;;
2039;SDS011;1025;42.686;23.350;2023-08-06T07:48:04;8.13;;;3.77;;
2039;SDS011;1025;42.686;23.350;2023-08-06T07:50:31;2.90;;;2.70;;
2039;SDS011;1025;42.686;23.350;2023-08-06T07:52:57;3.67;;;2.57;;
2039;SDS011;1025;42.686;23.350;2023-08-06T07:55:25;6.47;;;3.43;;
2039;SDS011;1025;42.686;23.350;2023-08-06T07:57:52;4.73;;;3.73;;
2039;SDS011;1025;42.686;23.350;2023-08-06T08:00:18;4.37;;;3.50;;
2039;SDS011;1025;42.686;23.350;2023-08-06T08:02:45;14.70;;;5.90;;
2039;SDS011;1025;42.686;23.350;2023-08-06T08:05:12;2.27;;;2.10;;
2039;SDS011;1025;42.686;23.350;2023-08-06T08:07:39;2.03;;;1.93;;
2039;SDS011;1025;42.686;23.350;2023-08-06T08:10:06;3.63;;;2.20;;
2039;SDS011;1025;42.686;23.350;2023-08-06T08:12:34;2.40;;;2.27;;
2039;SDS011;1025;42.686;23.350;2023-08-06T08:15:00;2.70;;;2.50;;
2039;SDS011;1025;42.686;23.350;2023-08-06T08:17:27;5.20;;;3.83;;
2039;SDS011;1025;42.686;23.350;2023-08-06T08:19:53;5.53;;;2.80;;
2039;SDS011;1025;42.686;23.350;2023-08-06T08:22:20;2.60;;;2.40;;
2039;SDS011;1025;42.686;23.350;2023-08-06T08:24:46;4.87;;;2.83;;
2039;SDS011;1025;42.686;23.350;2023-08-06T08:27:13;6.70;;;2.87;;
2039;SDS011;1025;42.686;23.350;2023-08-06T08:29:41;2.60;;;2.40;;
2039;SDS011;1025;42.686;23.350;2023-08-06T08:32:07;2.33;;;2.20;;
2039;SDS011;1025;42.686;23.350;2023-08-06T08:34:35;3.83;;;3.53;;
2039;SDS011;1025;42.686;23.350;2023-08-06T08:37:01;6.30;;;2.57;;
2039;SDS011;1025;42.686;23.350;2023-08-06T08:39:28;3.77;;;3.13;;
2039;SDS011;1025;42.686;23.350;2023-08-06T08:41:54;4.47;;;2.90;;
2039;SDS011;1025;42.686;23.350;2023-08-06T08:44:21;3.57;;;3.23;;
2039;SDS011;1025;42.686;23.350;2023-08-06T08:46:50;2.80;;;2.53;;
2039;SDS011;1025;42.686;23.350;2023-08-06T08:49:16;2.80;;;2.40;;
2039;SDS011;1025;42.686;23.350;2023-08-06T08:51:43;6.03;;;3.20;;
2039;SDS011;1025;42.686;23.350;2023-08-06T08:54:10;4.90;;;3.20;;
2039;SDS011;1025;42.686;23.350;2023-08-06T08:56:39;5.20;;;3.50;;
2039;SDS011;1025;42.686;23.350;2023-08-06T08:59:06;3.00;;;2.67;;
2039;SDS011;1025;42.686;23.350;2023-08-06T09:01:32;4.07;;;2.53;;
2039;SDS011;1025;42.686;23.350;2023-08-06T09:04:00;3.67;;;2.80;;
2039;SDS011;1025;42.686;23.350;2023-08-06T09:06:28;5.33;;;2.60;;
2039;SDS011;1025;42.686;23.350;2023-08-06T09:08:56;5.53;;;3.80;;
2039;SDS011;1025;42.686;23.350;2023-08-06T09:11:27;7.40;;;3.43;;
2039;SDS011;1025;42.686;23.350;2023-08-06T09:13:53;4.53;;;3.30;;
2039;SDS011;1025;42.686;23.350;2023-08-06T09:16:20;3.87;;;3.23;;
2039;SDS011;1025;42.686;23.350;2023-08-06T09:18:46;3.10;;;2.87;;
2039;SDS011;1025;42.686;23.350;2023-08-06T09:21:15;6.27;;;3.73;;
2039;SDS011;1025;42.686;23.350;2023-08-06T09:23:42;6.90;;;2.90;;
2039;SDS011;1025;42.686;23.350;2023-08-06T09:26:11;5.90;;;3.70;;
2039;SDS011;1025;42.686;23.350;2023-08-06T09:28:37;3.73;;;2.73;;
2039;SDS011;1025;42.686;23.350;2023-08-06T09:31:06;9.60;;;3.10;;
2039;SDS011;1025;42.686;23.350;2023-08-06T09:33:33;3.47;;;3.00;;
2039;SDS011;1025;42.686;23.350;2023-08-06T09:36:05;3.60;;;3.30;;
2039;SDS011;1025;42.686;23.350;2023-08-06T09:38:35;3.10;;;2.90;;
2039;SDS011;1025;42.686;23.350;2023-08-06T09:41:03;3.97;;;2.60;;
2039;SDS011;1025;42.686;23.350;2023-08-06T09:43:29;2.77;;;2.57;;
2039;SDS011;1025;42.686;23.350;2023-08-06T09:45:56;3.00;;;2.70;;
2039;SDS011;1025;42.686;23.350;2023-08-06T09:48:23;3.10;;;2.47;;
2039;SDS011;1025;42.686;23.350;2023-08-06T09:50:50;4.70;;;2.60;;
2039;SDS011;1025;42.686;23.350;2023-08-06T09:53:17;2.73;;;2.50;;
2039;SDS011;1025;42.686;23.350;2023-08-06T09:55:46;3.37;;;2.43;;
2039;SDS011;1025;42.686;23.350;2023-08-06T09:58:13;3.20;;;2.50;;
2039;SDS011;1025;42.686;23.350;2023-08-06T10:00:40;3.23;;;2.73;;
2039;SDS011;1025;42.686;23.350;2023-08-06T10:03:06;3.67;;;2.60;;
2039;SDS011;1025;42.686;23.350;2023-08-06T10:05:34;2.73;;;2.53;;
2039;SDS011;1025;42.686;23.350;2023-08-06T10:08:00;2.37;;;2.27;;
2039;SDS011;1025;42.686;23.350;2023-08-06T10:10:28;2.53;;;2.30;;
2039;SDS011;1025;42.686;23.350;2023-08-06T10:12:56;3.50;;;2.30;;
2039;SDS011;1025;42.686;23.350;2023-08-06T10:15:26;3.40;;;2.73;;
2039;SDS011;1025;42.686;23.350;2023-08-06T10:17:54;3.43;;;3.20;;
2039;SDS011;1025;42.686;23.350;2023-08-06T10:20:22;5.53;;;3.33;;
2039;SDS011;1025;42.686;23.350;2023-08-06T10:22:59;7.17;;;3.80;;
2039;SDS011;1025;42.686;23.350;2023-08-06T10:25:26;5.00;;;2.60;;
2039;SDS011;1025;42.686;23.350;2023-08-06T10:27:57;2.60;;;2.40;;
2039;SDS011;1025;42.686;23.350;2023-08-06T10:30:25;3.10;;;2.30;;
2039;SDS011;1025;42.686;23.350;2023-08-06T10:32:52;2.67;;;2.43;;
2039;SDS011;1025;42.686;23.350;2023-08-06T10:35:28;5.30;;;2.60;;
2039;SDS011;1025;42.686;23.350;2023-08-06T10:37:57;2.90;;;2.70;;
2039;SDS011;1025;42.686;23.350;2023-08-06T10:40:24;3.07;;;2.67;;
2039;SDS011;1025;42.686;23.350;2023-08-06T10:42:51;6.47;;;2.60;;
2039;SDS011;1025;42.686;23.350;2023-08-06T10:45:19;3.03;;;2.33;;
2039;SDS011;1025;42.686;23.350;2023-08-06T10:47:46;3.40;;;3.10;;
2039;SDS011;1025;42.686;23.350;2023-08-06T10:50:13;3.00;;;2.73;;
2039;SDS011;1025;42.686;23.350;2023-08-06T10:52:41;4.53;;;2.30;;
2039;SDS011;1025;42.686;23.350;2023-08-06T10:55:08;2.50;;;2.30;;
2039;SDS011;1025;42.686;23.350;2023-08-06T10:57:35;3.30;;;2.93;;
2039;SDS011;1025;42.686;23.350;2023-08-06T11:00:03;3.03;;;2.73;;
2039;SDS011;1025;42.686;23.350;2023-08-06T11:02:33;2.77;;;2.13;;
2039;SDS011;1025;42.686;23.350;2023-08-06T11:05:04;2.43;;;2.23;;
2039;SDS011;1025;42.686;23.350;2023-08-06T11:07:31;2.80;;;2.60;;
2039;SDS011;1025;42.686;23.350;2023-08-06T11:10:00;2.90;;;2.67;;
2039;SDS011;1025;42.686;23.350;2023-08-06T11:12:27;3.10;;;2.80;;
2039;SDS011;1025;42.686;23.350;2023-08-06T11:14:54;3.27;;;2.97;;
2039;SDS011;1025;42.686;23.350;2023-08-06T11:17:21;3.83;;;3.47;;
2039;SDS011;1025;42.686;23.350;2023-08-06T11:19:49;6.87;;;3.40;;
2039;SDS011;1025;42.686;23.350;2023-08-06T11:22:15;2.97;;;2.77;;
2039;SDS011;1025;42.686;23.350;2023-08-06T11:24:42;4.93;;;3.57;;
2039;SDS011;1025;42.686;23.350;2023-08-06T11:27:12;3.67;;;3.37;;
2039;SDS011;1025;42.686;23.350;2023-08-06T11:29:40;4.27;;;3.87;;
2039;SDS011;1025;42.686;23.350;2023-08-06T11:32:06;4.80;;;4.40;;
2039;SDS011;1025;42.686;23.350;2023-08-06T11:34:33;6.53;;;4.57;;
2039;SDS011;1025;42.686;23.350;2023-08-06T11:37:01;6.93;;;4.17;;
2039;SDS011;1025;42.686;23.350;2023-08-06T11:39:30;4.73;;;4.33;;
2039;SDS011;1025;42.686;23.350;2023-08-06T11:41:56;3.73;;;3.53;;
2039;SDS011;1025;42.686;23.350;2023-08-06T11:44:29;11.87;;;5.20;;
2039;SDS011;1025;42.686;23.350;2023-08-06T11:46:56;9.53;;;4.40;;
2039;SDS011;1025;42.686;23.350;2023-08-06T11:49:37;5.83;;;4.37;;
2039;SDS011;1025;42.686;23.350;2023-08-06T11:52:09;9.23;;;6.27;;
2039;SDS011;1025;42.686;23.350;2023-08-06T11:54:35;5.17;;;4.10;;
2039;SDS011;1025;42.686;23.350;2023-08-06T11:57:02;7.93;;;5.37;;
2039;SDS011;1025;42.686;23.350;2023-08-06T11:59:29;7.90;;;4.47;;
2039;SDS011;1025;42.686;23.350;2023-08-06T12:01:55;5.40;;;3.67;;
2039;SDS011;1025;42.686;23.350;2023-08-06T12:04:22;7.43;;;3.70;;
2039;SDS011;1025;42.686;23.350;2023-08-06T12:06:48;6.60;;;4.30;;
2039;SDS011;1025;42.686;23.350;2023-08-06T12:09:16;4.83;;;4.53;;
2039;SDS011;1025;42.686;23.350;2023-08-06T12:11:43;6.33;;;4.63;;
2039;SDS011;1025;42.686;23.350;2023-08-06T12:14:09;8.17;;;4.67;;
2039;SDS011;1025;42.686;23.350;2023-08-06T12:16:36;4.43;;;4.13;;
2039;SDS011;1025;42.686;23.350;2023-08-06T12:19:02;4.57;;;4.20;;
2039;SDS011;1025;42.686;23.350;2023-08-06T12:21:29;4.67;;;4.27;;
2039;SDS011;1025;42.686;23.350;2023-08-06T12:23:56;5.17;;;4.63;;
2039;SDS011;1025;42.686;23.350;2023-08-06T12:26:23;4.70;;;4.10;;
2039;SDS011;1025;42.686;23.350;2023-08-06T12:28:50;7.20;;;5.33;;
2039;SDS011;1025;42.686;23.350;2023-08-06T12:31:20;4.53;;;4.13;;
2039;SDS011;1025;42.686;23.350;2023-08-06T12:33:46;5.10;;;4.30;;
2039;SDS011;1025;42.686;23.350;2023-08-06T12:36:13;5.20;;;4.73;;
2039;SDS011;1025;42.686;23.350;2023-08-06T12:38:39;6.60;;;4.87;;
2039;SDS011;1025;42.686;23.350;2023-08-06T12:41:06;6.17;;;4.70;;
2039;SDS011;1025;42.686;23.350;2023-08-06T12:43:33;4.93;;;4.63;;
2039;SDS011;1025;42.686;23.350;2023-08-06T12:46:00;4.43;;;4.23;;
2039;SDS011;1025;42.686;23.350;2023-08-06T12:48:26;5.60;;;5.20;;
2039;SDS011;1025;42.686;23.350;2023-08-06T12:50:53;6.90;;;6.40;;
2039;SDS011;1025;42.686;23.350;2023-08-06T12:53:20;10.87;;;5.67;;
2039;SDS011;1025;42.686;23.350;2023-08-06T12:55:48;5.57;;;4.50;;
2039;SDS011;1025;42.686;23.350;2023-08-06T12:58:14;5.57;;;5.07;;
2039;SDS011;1025;42.686;23.350;2023-08-06T13:00:42;5.07;;;4.60;;
2039;SDS011;1025;42.686;23.350;2023-08-06T13:03:09;9.50;;;5.77;;
2039;SDS011;1025;42.686;23.350;2023-08-06T13:05:35;5.33;;;4.73;;
2039;SDS011;1025;42.686;23.350;2023-08-06T13:08:02;7.63;;;4.90;;
2039;SDS011;1025;42.686;23.350;2023-08-06T13:10:29;6.10;;;4.30;;
2039;SDS011;1025;42.686;23.350;2023-08-06T13:12:56;8.20;;;5.60;;
2039;SDS011;1025;42.686;23.350;2023-08-06T13:15:23;5.47;;;4.93;;
2039;SDS011;1025;42.686;23.350;2023-08-06T13:17:51;4.57;;;4.27;;
2039;SDS011;1025;42.686;23.350;2023-08-06T13:20:17;4.80;;;4.40;;
2039;SDS011;1025;42.686;23.350;2023-08-06T13:22:44;4.73;;;4.27;;
2039;SDS011;1025;42.686;23.350;2023-08-06T13:25:11;4.93;;;4.50;;
2039;SDS011;1025;42.686;23.350;2023-08-06T13:27:39;4.53;;;4.23;;
2039;SDS011;1025;42.686;23.350;2023-08-06T13:30:06;5.30;;;4.80;;
2039;SDS011;1025;42.686;23.350;2023-08-06T13:32:33;5.07;;;4.67;;
2039;SDS011;1025;42.686;23.350;2023-08-06T13:35:03;4.83;;;4.43;;
2039;SDS011;1025;42.686;23.350;2023-08-06T13:37:29;5.43;;;4.77;;
2039;SDS011;1025;42.686;23.350;2023-08-06T13:39:56;5.40;;;4.90;;
2039;SDS011;1025;42.686;23.350;2023-08-06T13:42:23;4.93;;;4.60;;
2039;SDS011;1025;42.686;23.350;2023-08-06T13:44:49;4.57;;;3.87;;
2039;SDS011;1025;42.686;23.350;2023-08-06T13:47:16;5.27;;;4.87;;
2039;SDS011;1025;42.686;23.350;2023-08-06T13:49:43;4.30;;;4.10;;
2039;SDS011;1025;42.686;23.350;2023-08-06T13:52:10;4.10;;;3.80;;
2039;SDS011;1025;42.686;23.350;2023-08-06T13:54:37;4.20;;;3.90;;
2039;SDS011;1025;42.686;23.350;2023-08-06T13:57:04;4.10;;;3.70;;
2039;SDS011;1025;42.686;23.350;2023-08-06T13:59:30;4.20;;;4.00;;
2039;SDS011;1025;42.686;23.350;2023-08-06T14:01:57;7.07;;;5.50;;
2039;SDS011;1025;42.686;23.350;2023-08-06T14:04:24;10.17;;;5.17;;
2039;SDS011;1025;42.686;23.350;2023-08-06T14:06:51;7.90;;;4.30;;
2039;SDS011;1025;42.686;23.350;2023-08-06T14:09:19;4.47;;;4.07;;
2039;SDS011;1025;42.686;23.350;2023-08-06T14:11:45;4.90;;;4.50;;
2039;SDS011;1025;42.686;23.350;2023-08-06T14:14:12;4.90;;;3.97;;
2039;SDS011;1025;42.686;23.350;2023-08-06T14:16:38;9.10;;;5.00;;
2039;SDS011;1025;42.686;23.350;2023-08-06T14:19:05;4.07;;;3.77;;
2039;SDS011;1025;42.686;23.350;2023-08-06T14:21:32;4.87;;;4.47;;
2039;SDS011;1025;42.686;23.350;2023-08-06T14:23:58;4.60;;;3.77;;
2039;SDS011;1025;42.686;23.350;2023-08-06T14:26:26;3.70;;;3.40;;
2039;SDS011;1025;42.686;23.350;2023-08-06T14:28:53;5.00;;;4.00;;
2039;SDS011;1025;42.686;23.350;2023-08-06T14:31:19;4.47;;;4.17;;
2039;SDS011;1025;42.686;23.350;2023-08-06T14:33:46;5.40;;;5.00;;
2039;SDS011;1025;42.686;23.350;2023-08-06T14:36:12;4.43;;;3.50;;
2039;SDS011;1025;42.686;23.350;2023-08-06T14:38:39;5.73;;;4.20;;
2039;SDS011;1025;42.686;23.350;2023-08-06T14:41:05;3.67;;;3.37;;
2039;SDS011;1025;42.686;23.350;2023-08-06T14:43:33;3.80;;;3.57;;
2039;SDS011;1025;42.686;23.350;2023-08-06T14:46:00;8.83;;;6.30;;
2039;SDS011;1025;42.686;23.350;2023-08-06T14:48:26;6.37;;;3.40;;
2039;SDS011;1025;42.686;23.350;2023-08-06T14:50:53;5.00;;;4.20;;
2039;SDS011;1025;42.686;23.350;2023-08-06T14:53:20;4.37;;;4.07;;
2039;SDS011;1025;42.686;23.350;2023-08-06T14:55:46;3.97;;;3.67;;
2039;SDS011;1025;42.686;23.350;2023-08-06T14:58:13;4.30;;;3.90;;
2039;SDS011;1025;42.686;23.350;2023-08-06T15:00:41;4.10;;;3.70;;